sensor_id;sensor_type;location;lat;lon;timestamp;P1;durP1;ratioP1;P2;durP2;ratioP2
31966;SDS011;18496;52.042;6.812;2023-07-30T00:01:40;7.22;;;3.60;;
31966;SDS011;18496;52.042;6.812;2023-07-30T00:03:43;11.20;;;4.03;;
31966;SDS011;18496;52.042;6.812;2023-07-30T00:05:53;6.70;;;3.65;;
31966;SDS011;18496;52.042;6.812;2023-07-30T00:07:58;9.45;;;4.13;;
31966;SDS011;18496;52.042;6.812;2023-07-30T00:10:01;9.75;;;4.18;;
31966;SDS011;18496;52.042;6.812;2023-07-30T00:12:06;12.02;;;4.68;;
31966;SDS011;18496;52.042;6.812;2023-07-30T00:14:10;13.30;;;4.47;;
31966;SDS011;18496;52.042;6.812;2023-07-30T00:16:14;12.15;;;4.25;;
31966;SDS011;18496;52.042;6.812;2023-07-30T00:18:17;6.90;;;3.60;;
31966;SDS011;18496;52.042;6.812;2023-07-30T00:20:21;12.63;;;4.70;;
31966;SDS011;18496;52.042;6.812;2023-07-30T00:22:24;10.85;;;4.80;;
31966;SDS011;18496;52.042;6.812;2023-07-30T00:24:28;9.40;;;4.13;;
31966;SDS011;18496;52.042;6.812;2023-07-30T00:26:32;9.68;;;4.07;;
31966;SDS011;18496;52.042;6.812;2023-07-30T00:28:35;12.45;;;4.50;;
31966;SDS011;18496;52.042;6.812;2023-07-30T00:30:39;13.35;;;5.50;;
31966;SDS011;18496;52.042;6.812;2023-07-30T00:32:43;15.23;;;5.78;;
31966;SDS011;18496;52.042;6.812;2023-07-30T00:34:46;18.60;;;5.45;;
31966;SDS011;18496;52.042;6.812;2023-07-30T00:36:50;14.20;;;5.18;;
31966;SDS011;18496;52.042;6.812;2023-07-30T00:38:54;8.75;;;4.32;;
31966;SDS011;18496;52.042;6.812;2023-07-30T00:40:57;13.32;;;4.72;;
31966;SDS011;18496;52.042;6.812;2023-07-30T00:43:01;17.13;;;5.45;;
31966;SDS011;18496;52.042;6.812;2023-07-30T00:45:05;14.32;;;5.05;;
31966;SDS011;18496;52.042;6.812;2023-07-30T00:47:09;12.27;;;5.15;;
31966;SDS011;18496;52.042;6.812;2023-07-30T00:49:12;9.43;;;4.65;;
31966;SDS011;18496;52.042;6.812;2023-07-30T00:51:16;11.60;;;4.95;;
31966;SDS011;18496;52.042;6.812;2023-07-30T00:53:22;17.00;;;5.30;;
31966;SDS011;18496;52.042;6.812;2023-07-30T00:55:29;9.60;;;5.00;;
31966;SDS011;18496;52.042;6.812;2023-07-30T00:57:32;12.10;;;5.43;;
31966;SDS011;18496;52.042;6.812;2023-07-30T00:59:39;14.73;;;5.38;;
31966;SDS011;18496;52.042;6.812;2023-07-30T01:01:43;10.73;;;4.93;;
31966;SDS011;18496;52.042;6.812;2023-07-30T01:03:50;9.50;;;4.22;;
31966;SDS011;18496;52.042;6.812;2023-07-30T01:05:53;9.90;;;4.70;;
31966;SDS011;18496;52.042;6.812;2023-07-30T01:07:57;13.40;;;4.90;;
31966;SDS011;18496;52.042;6.812;2023-07-30T01:10:01;11.93;;;4.13;;
31966;SDS011;18496;52.042;6.812;2023-07-30T01:12:06;16.33;;;4.32;;
31966;SDS011;18496;52.042;6.812;2023-07-30T01:14:10;12.02;;;4.22;;
31966;SDS011;18496;52.042;6.812;2023-07-30T01:16:15;9.65;;;4.45;;
31966;SDS011;18496;52.042;6.812;2023-07-30T01:18:20;10.80;;;4.30;;
31966;SDS011;18496;52.042;6.812;2023-07-30T01:20:23;10.88;;;4.57;;
31966;SDS011;18496;52.042;6.812;2023-07-30T01:22:27;8.30;;;4.20;;
31966;SDS011;18496;52.042;6.812;2023-07-30T01:24:31;5.88;;;3.58;;
31966;SDS011;18496;52.042;6.812;2023-07-30T01:26:37;12.35;;;4.57;;
31966;SDS011;18496;52.042;6.812;2023-07-30T01:30:52;8.43;;;4.22;;
31966;SDS011;18496;52.042;6.812;2023-07-30T01:32:57;11.05;;;4.10;;
31966;SDS011;18496;52.042;6.812;2023-07-30T01:35:01;11.63;;;4.10;;
31966;SDS011;18496;52.042;6.812;2023-07-30T01:37:08;10.25;;;3.90;;
31966;SDS011;18496;52.042;6.812;2023-07-30T01:39:14;10.80;;;3.97;;
31966;SDS011;18496;52.042;6.812;2023-07-30T01:41:19;8.60;;;3.88;;
31966;SDS011;18496;52.042;6.812;2023-07-30T01:43:23;8.95;;;3.63;;
31966;SDS011;18496;52.042;6.812;2023-07-30T01:45:26;8.35;;;4.07;;
31966;SDS011;18496;52.042;6.812;2023-07-30T01:47:30;7.65;;;4.22;;
31966;SDS011;18496;52.042;6.812;2023-07-30T01:49:34;15.45;;;4.25;;
31966;SDS011;18496;52.042;6.812;2023-07-30T01:51:37;14.85;;;3.67;;
31966;SDS011;18496;52.042;6.812;2023-07-30T01:53:41;10.50;;;3.88;;
31966;SDS011;18496;52.042;6.812;2023-07-30T01:55:45;12.30;;;3.92;;
31966;SDS011;18496;52.042;6.812;2023-07-30T01:57:49;8.82;;;3.60;;
31966;SDS011;18496;52.042;6.812;2023-07-30T01:59:53;7.18;;;3.50;;
31966;SDS011;18496;52.042;6.812;2023-07-30T02:01:56;7.72;;;3.50;;
31966;SDS011;18496;52.042;6.812;2023-07-30T02:04:00;12.25;;;3.58;;
31966;SDS011;18496;52.042;6.812;2023-07-30T02:06:04;13.55;;;3.65;;
31966;SDS011;18496;52.042;6.812;2023-07-30T02:08:08;10.07;;;3.90;;
31966;SDS011;18496;52.042;6.812;2023-07-30T02:10:11;9.80;;;3.90;;
31966;SDS011;18496;52.042;6.812;2023-07-30T02:12:15;12.50;;;3.88;;
31966;SDS011;18496;52.042;6.812;2023-07-30T02:14:19;10.18;;;3.80;;
31966;SDS011;18496;52.042;6.812;2023-07-30T02:16:25;9.43;;;3.78;;
31966;SDS011;18496;52.042;6.812;2023-07-30T02:18:29;8.75;;;3.35;;
31966;SDS011;18496;52.042;6.812;2023-07-30T02:20:32;10.65;;;4.00;;
31966;SDS011;18496;52.042;6.812;2023-07-30T02:22:36;6.43;;;3.28;;
31966;SDS011;18496;52.042;6.812;2023-07-30T02:24:43;11.45;;;4.28;;
31966;SDS011;18496;52.042;6.812;2023-07-30T02:26:46;11.75;;;3.90;;
31966;SDS011;18496;52.042;6.812;2023-07-30T02:28:51;6.00;;;3.50;;
31966;SDS011;18496;52.042;6.812;2023-07-30T02:30:55;8.73;;;3.75;;
31966;SDS011;18496;52.042;6.812;2023-07-30T02:32:59;11.05;;;3.60;;
31966;SDS011;18496;52.042;6.812;2023-07-30T02:35:02;13.85;;;3.67;;
31966;SDS011;18496;52.042;6.812;2023-07-30T02:37:06;8.13;;;3.20;;
31966;SDS011;18496;52.042;6.812;2023-07-30T02:39:12;13.70;;;4.00;;
31966;SDS011;18496;52.042;6.812;2023-07-30T02:41:16;12.75;;;3.60;;
31966;SDS011;18496;52.042;6.812;2023-07-30T02:43:20;12.38;;;3.28;;
31966;SDS011;18496;52.042;6.812;2023-07-30T02:45:24;11.98;;;3.55;;
31966;SDS011;18496;52.042;6.812;2023-07-30T02:47:28;12.02;;;3.17;;
31966;SDS011;18496;52.042;6.812;2023-07-30T02:49:32;18.27;;;3.50;;
31966;SDS011;18496;52.042;6.812;2023-07-30T02:51:35;11.63;;;3.17;;
31966;SDS011;18496;52.042;6.812;2023-07-30T02:53:39;11.52;;;3.53;;
31966;SDS011;18496;52.042;6.812;2023-07-30T02:55:43;11.65;;;3.28;;
31966;SDS011;18496;52.042;6.812;2023-07-30T02:57:46;8.95;;;3.55;;
31966;SDS011;18496;52.042;6.812;2023-07-30T02:59:50;14.75;;;3.45;;
31966;SDS011;18496;52.042;6.812;2023-07-30T03:01:54;12.52;;;3.58;;
31966;SDS011;18496;52.042;6.812;2023-07-30T03:03:57;9.00;;;3.08;;
31966;SDS011;18496;52.042;6.812;2023-07-30T03:06:01;13.00;;;3.85;;
31966;SDS011;18496;52.042;6.812;2023-07-30T03:08:05;7.82;;;3.42;;
31966;SDS011;18496;52.042;6.812;2023-07-30T03:10:08;8.05;;;3.03;;
31966;SDS011;18496;52.042;6.812;2023-07-30T03:12:15;11.13;;;3.40;;
31966;SDS011;18496;52.042;6.812;2023-07-30T03:14:19;12.40;;;4.07;;
31966;SDS011;18496;52.042;6.812;2023-07-30T03:16:26;7.15;;;3.28;;
31966;SDS011;18496;52.042;6.812;2023-07-30T03:18:29;14.77;;;4.05;;
31966;SDS011;18496;52.042;6.812;2023-07-30T03:20:33;7.40;;;4.22;;
31966;SDS011;18496;52.042;6.812;2023-07-30T03:22:37;9.88;;;3.67;;
31966;SDS011;18496;52.042;6.812;2023-07-30T03:24:41;7.93;;;3.30;;
31966;SDS011;18496;52.042;6.812;2023-07-30T03:26:44;12.93;;;4.22;;
31966;SDS011;18496;52.042;6.812;2023-07-30T03:28:48;13.00;;;3.75;;
31966;SDS011;18496;52.042;6.812;2023-07-30T03:30:52;10.90;;;3.78;;
31966;SDS011;18496;52.042;6.812;2023-07-30T03:32:55;12.98;;;3.47;;
31966;SDS011;18496;52.042;6.812;2023-07-30T03:34:59;10.55;;;3.28;;
31966;SDS011;18496;52.042;6.812;2023-07-30T03:37:03;13.98;;;3.45;;
31966;SDS011;18496;52.042;6.812;2023-07-30T03:39:07;9.40;;;3.45;;
31966;SDS011;18496;52.042;6.812;2023-07-30T03:41:10;12.68;;;3.50;;
31966;SDS011;18496;52.042;6.812;2023-07-30T03:43:14;16.58;;;4.05;;
31966;SDS011;18496;52.042;6.812;2023-07-30T03:45:18;11.57;;;3.72;;
31966;SDS011;18496;52.042;6.812;2023-07-30T03:47:22;8.65;;;3.97;;
31966;SDS011;18496;52.042;6.812;2023-07-30T03:49:26;10.13;;;3.60;;
31966;SDS011;18496;52.042;6.812;2023-07-30T03:51:31;8.50;;;3.55;;
31966;SDS011;18496;52.042;6.812;2023-07-30T03:53:35;10.32;;;4.20;;
31966;SDS011;18496;52.042;6.812;2023-07-30T03:55:40;12.30;;;3.40;;
31966;SDS011;18496;52.042;6.812;2023-07-30T03:57:44;8.63;;;3.25;;
31966;SDS011;18496;52.042;6.812;2023-07-30T03:59:47;10.55;;;3.67;;
31966;SDS011;18496;52.042;6.812;2023-07-30T04:01:51;16.85;;;4.00;;
31966;SDS011;18496;52.042;6.812;2023-07-30T04:03:54;11.18;;;3.92;;
31966;SDS011;18496;52.042;6.812;2023-07-30T04:05:59;14.43;;;3.80;;
31966;SDS011;18496;52.042;6.812;2023-07-30T04:08:03;13.90;;;3.72;;
31966;SDS011;18496;52.042;6.812;2023-07-30T04:10:06;10.48;;;4.35;;
31966;SDS011;18496;52.042;6.812;2023-07-30T04:12:11;14.07;;;4.05;;
31966;SDS011;18496;52.042;6.812;2023-07-30T04:14:14;17.10;;;3.70;;
31966;SDS011;18496;52.042;6.812;2023-07-30T04:16:18;15.70;;;4.30;;
31966;SDS011;18496;52.042;6.812;2023-07-30T04:18:22;9.73;;;4.40;;
31966;SDS011;18496;52.042;6.812;2023-07-30T04:20:26;10.95;;;3.97;;
31966;SDS011;18496;52.042;6.812;2023-07-30T04:22:32;13.52;;;4.88;;
31966;SDS011;18496;52.042;6.812;2023-07-30T04:24:35;24.58;;;5.80;;
31966;SDS011;18496;52.042;6.812;2023-07-30T04:26:39;16.05;;;5.20;;
31966;SDS011;18496;52.042;6.812;2023-07-30T04:28:43;17.27;;;5.53;;
31966;SDS011;18496;52.042;6.812;2023-07-30T04:30:47;14.75;;;5.13;;
31966;SDS011;18496;52.042;6.812;2023-07-30T04:32:51;15.55;;;4.90;;
31966;SDS011;18496;52.042;6.812;2023-07-30T04:34:54;14.18;;;4.88;;
31966;SDS011;18496;52.042;6.812;2023-07-30T04:36:58;22.90;;;5.20;;
31966;SDS011;18496;52.042;6.812;2023-07-30T04:39:02;11.55;;;5.45;;
31966;SDS011;18496;52.042;6.812;2023-07-30T04:41:09;18.60;;;5.13;;
31966;SDS011;18496;52.042;6.812;2023-07-30T04:43:18;18.58;;;6.68;;
31966;SDS011;18496;52.042;6.812;2023-07-30T04:45:27;12.55;;;5.72;;
31966;SDS011;18496;52.042;6.812;2023-07-30T04:47:31;15.25;;;5.95;;
31966;SDS011;18496;52.042;6.812;2023-07-30T04:49:35;22.20;;;6.28;;
31966;SDS011;18496;52.042;6.812;2023-07-30T04:51:40;21.55;;;6.35;;
31966;SDS011;18496;52.042;6.812;2023-07-30T04:53:45;15.30;;;6.32;;
31966;SDS011;18496;52.042;6.812;2023-07-30T04:55:52;16.50;;;6.18;;
31966;SDS011;18496;52.042;6.812;2023-07-30T04:57:59;23.05;;;7.13;;
31966;SDS011;18496;52.042;6.812;2023-07-30T05:00:03;21.33;;;7.00;;
31966;SDS011;18496;52.042;6.812;2023-07-30T05:02:07;16.02;;;6.15;;
31966;SDS011;18496;52.042;6.812;2023-07-30T05:04:11;17.38;;;7.05;;
31966;SDS011;18496;52.042;6.812;2023-07-30T05:06:14;22.95;;;7.03;;
31966;SDS011;18496;52.042;6.812;2023-07-30T05:08:18;23.33;;;7.50;;
31966;SDS011;18496;52.042;6.812;2023-07-30T05:10:22;20.48;;;7.03;;
31966;SDS011;18496;52.042;6.812;2023-07-30T05:12:25;23.70;;;7.18;;
31966;SDS011;18496;52.042;6.812;2023-07-30T05:14:29;27.83;;;7.50;;
31966;SDS011;18496;52.042;6.812;2023-07-30T05:16:33;32.85;;;8.68;;
31966;SDS011;18496;52.042;6.812;2023-07-30T05:18:36;20.23;;;8.50;;
31966;SDS011;18496;52.042;6.812;2023-07-30T05:20:40;23.05;;;8.23;;
31966;SDS011;18496;52.042;6.812;2023-07-30T05:22:43;24.67;;;8.55;;
31966;SDS011;18496;52.042;6.812;2023-07-30T05:24:47;23.00;;;8.10;;
31966;SDS011;18496;52.042;6.812;2023-07-30T05:26:51;22.13;;;7.93;;
31966;SDS011;18496;52.042;6.812;2023-07-30T05:28:54;27.58;;;8.93;;
31966;SDS011;18496;52.042;6.812;2023-07-30T05:30:58;27.85;;;9.07;;
31966;SDS011;18496;52.042;6.812;2023-07-30T05:33:02;21.45;;;9.25;;
31966;SDS011;18496;52.042;6.812;2023-07-30T05:35:05;28.48;;;10.10;;
31966;SDS011;18496;52.042;6.812;2023-07-30T05:37:09;32.50;;;10.02;;
31966;SDS011;18496;52.042;6.812;2023-07-30T05:39:13;28.38;;;9.35;;
31966;SDS011;18496;52.042;6.812;2023-07-30T05:41:16;32.30;;;10.00;;
31966;SDS011;18496;52.042;6.812;2023-07-30T05:43:20;23.20;;;9.73;;
31966;SDS011;18496;52.042;6.812;2023-07-30T05:45:24;28.77;;;8.65;;
31966;SDS011;18496;52.042;6.812;2023-07-30T05:47:27;29.13;;;9.88;;
31966;SDS011;18496;52.042;6.812;2023-07-30T05:49:31;22.83;;;9.60;;
31966;SDS011;18496;52.042;6.812;2023-07-30T05:51:34;29.55;;;10.27;;
31966;SDS011;18496;52.042;6.812;2023-07-30T05:53:38;31.77;;;11.15;;
31966;SDS011;18496;52.042;6.812;2023-07-30T05:55:42;31.60;;;10.88;;
31966;SDS011;18496;52.042;6.812;2023-07-30T05:57:45;36.35;;;11.43;;
31966;SDS011;18496;52.042;6.812;2023-07-30T05:59:49;38.08;;;11.10;;
31966;SDS011;18496;52.042;6.812;2023-07-30T06:01:52;30.85;;;11.75;;
31966;SDS011;18496;52.042;6.812;2023-07-30T06:03:58;30.50;;;10.68;;
31966;SDS011;18496;52.042;6.812;2023-07-30T06:06:02;29.02;;;10.73;;
31966;SDS011;18496;52.042;6.812;2023-07-30T06:08:06;37.58;;;11.15;;
31966;SDS011;18496;52.042;6.812;2023-07-30T06:10:10;26.90;;;11.05;;
31966;SDS011;18496;52.042;6.812;2023-07-30T06:12:14;34.42;;;10.93;;
31966;SDS011;18496;52.042;6.812;2023-07-30T06:14:17;30.83;;;10.63;;
31966;SDS011;18496;52.042;6.812;2023-07-30T06:16:21;27.10;;;11.10;;
31966;SDS011;18496;52.042;6.812;2023-07-30T06:18:25;40.90;;;12.05;;
31966;SDS011;18496;52.042;6.812;2023-07-30T06:20:28;38.63;;;11.23;;
31966;SDS011;18496;52.042;6.812;2023-07-30T06:22:32;32.80;;;10.85;;
31966;SDS011;18496;52.042;6.812;2023-07-30T06:24:36;34.03;;;11.65;;
31966;SDS011;18496;52.042;6.812;2023-07-30T06:26:39;32.25;;;12.35;;
31966;SDS011;18496;52.042;6.812;2023-07-30T06:28:43;27.05;;;11.85;;
31966;SDS011;18496;52.042;6.812;2023-07-30T06:30:47;38.78;;;12.38;;
31966;SDS011;18496;52.042;6.812;2023-07-30T06:32:50;31.63;;;11.20;;
31966;SDS011;18496;52.042;6.812;2023-07-30T06:34:54;29.90;;;10.90;;
31966;SDS011;18496;52.042;6.812;2023-07-30T06:36:57;32.10;;;11.13;;
31966;SDS011;18496;52.042;6.812;2023-07-30T06:39:01;28.88;;;11.60;;
31966;SDS011;18496;52.042;6.812;2023-07-30T06:41:05;24.10;;;10.20;;
31966;SDS011;18496;52.042;6.812;2023-07-30T06:43:08;40.25;;;12.32;;
31966;SDS011;18496;52.042;6.812;2023-07-30T06:45:12;31.08;;;10.48;;
31966;SDS011;18496;52.042;6.812;2023-07-30T06:47:16;33.42;;;11.43;;
31966;SDS011;18496;52.042;6.812;2023-07-30T06:49:19;30.50;;;10.68;;
31966;SDS011;18496;52.042;6.812;2023-07-30T06:51:26;25.65;;;10.93;;
31966;SDS011;18496;52.042;6.812;2023-07-30T06:53:30;31.27;;;10.38;;
31966;SDS011;18496;52.042;6.812;2023-07-30T06:55:34;28.98;;;11.27;;
31966;SDS011;18496;52.042;6.812;2023-07-30T06:57:37;34.65;;;10.43;;
31966;SDS011;18496;52.042;6.812;2023-07-30T06:59:41;35.63;;;11.05;;
31966;SDS011;18496;52.042;6.812;2023-07-30T07:01:45;33.90;;;11.55;;
31966;SDS011;18496;52.042;6.812;2023-07-30T07:03:48;34.42;;;11.77;;
31966;SDS011;18496;52.042;6.812;2023-07-30T07:05:53;32.78;;;11.23;;
31966;SDS011;18496;52.042;6.812;2023-07-30T07:07:59;31.77;;;11.13;;
31966;SDS011;18496;52.042;6.812;2023-07-30T07:10:03;32.63;;;11.13;;
31966;SDS011;18496;52.042;6.812;2023-07-30T07:12:07;25.70;;;9.85;;
31966;SDS011;18496;52.042;6.812;2023-07-30T07:14:11;30.42;;;10.93;;
31966;SDS011;18496;52.042;6.812;2023-07-30T07:16:15;27.05;;;11.05;;
31966;SDS011;18496;52.042;6.812;2023-07-30T07:18:18;33.28;;;10.73;;
31966;SDS011;18496;52.042;6.812;2023-07-30T07:20:22;35.08;;;10.80;;
31966;SDS011;18496;52.042;6.812;2023-07-30T07:22:26;42.58;;;11.25;;
31966;SDS011;18496;52.042;6.812;2023-07-30T07:24:29;29.83;;;10.48;;
31966;SDS011;18496;52.042;6.812;2023-07-30T07:26:34;28.35;;;10.82;;
31966;SDS011;18496;52.042;6.812;2023-07-30T07:28:37;37.30;;;11.93;;
31966;SDS011;18496;52.042;6.812;2023-07-30T07:30:41;31.50;;;10.50;;
31966;SDS011;18496;52.042;6.812;2023-07-30T07:32:45;34.25;;;10.82;;
31966;SDS011;18496;52.042;6.812;2023-07-30T07:34:53;27.95;;;11.15;;
31966;SDS011;18496;52.042;6.812;2023-07-30T07:36:57;26.02;;;10.73;;
31966;SDS011;18496;52.042;6.812;2023-07-30T07:39:00;33.13;;;11.15;;
31966;SDS011;18496;52.042;6.812;2023-07-30T07:41:04;36.47;;;11.20;;
31966;SDS011;18496;52.042;6.812;2023-07-30T07:43:08;33.83;;;10.82;;
31966;SDS011;18496;52.042;6.812;2023-07-30T07:45:12;41.05;;;10.57;;
31966;SDS011;18496;52.042;6.812;2023-07-30T07:47:15;27.10;;;10.50;;
31966;SDS011;18496;52.042;6.812;2023-07-30T07:49:19;25.05;;;10.02;;
31966;SDS011;18496;52.042;6.812;2023-07-30T07:51:23;36.85;;;11.35;;
31966;SDS011;18496;52.042;6.812;2023-07-30T07:53:26;31.42;;;10.35;;
31966;SDS011;18496;52.042;6.812;2023-07-30T07:55:30;26.95;;;9.27;;
31966;SDS011;18496;52.042;6.812;2023-07-30T07:57:33;35.13;;;11.40;;
31966;SDS011;18496;52.042;6.812;2023-07-30T07:59:37;26.58;;;10.18;;
31966;SDS011;18496;52.042;6.812;2023-07-30T08:01:41;32.30;;;11.63;;
31966;SDS011;18496;52.042;6.812;2023-07-30T08:03:44;27.40;;;10.07;;
31966;SDS011;18496;52.042;6.812;2023-07-30T08:05:48;28.05;;;9.70;;
31966;SDS011;18496;52.042;6.812;2023-07-30T08:07:52;28.55;;;10.30;;
31966;SDS011;18496;52.042;6.812;2023-07-30T08:09:56;24.55;;;10.13;;
31966;SDS011;18496;52.042;6.812;2023-07-30T08:11:59;28.70;;;10.27;;
31966;SDS011;18496;52.042;6.812;2023-07-30T08:14:04;24.73;;;10.48;;
31966;SDS011;18496;52.042;6.812;2023-07-30T08:16:07;26.02;;;10.35;;
31966;SDS011;18496;52.042;6.812;2023-07-30T08:18:11;36.15;;;10.35;;
31966;SDS011;18496;52.042;6.812;2023-07-30T08:20:15;25.75;;;9.93;;
31966;SDS011;18496;52.042;6.812;2023-07-30T08:22:18;27.80;;;10.52;;
31966;SDS011;18496;52.042;6.812;2023-07-30T08:24:22;36.78;;;11.05;;
31966;SDS011;18496;52.042;6.812;2023-07-30T08:26:26;25.27;;;9.52;;
31966;SDS011;18496;52.042;6.812;2023-07-30T08:28:29;37.88;;;11.05;;
31966;SDS011;18496;52.042;6.812;2023-07-30T08:30:33;31.13;;;9.15;;
31966;SDS011;18496;52.042;6.812;2023-07-30T08:32:37;25.50;;;9.88;;
31966;SDS011;18496;52.042;6.812;2023-07-30T08:34:40;32.42;;;9.98;;
31966;SDS011;18496;52.042;6.812;2023-07-30T08:36:44;30.70;;;10.23;;
31966;SDS011;18496;52.042;6.812;2023-07-30T08:38:48;30.45;;;9.57;;
31966;SDS011;18496;52.042;6.812;2023-07-30T08:40:51;26.05;;;8.85;;
31966;SDS011;18496;52.042;6.812;2023-07-30T08:42:55;21.38;;;8.95;;
31966;SDS011;18496;52.042;6.812;2023-07-30T08:44:59;25.55;;;9.75;;
31966;SDS011;18496;52.042;6.812;2023-07-30T08:47:02;24.95;;;10.18;;
31966;SDS011;18496;52.042;6.812;2023-07-30T08:49:06;21.13;;;8.57;;
31966;SDS011;18496;52.042;6.812;2023-07-30T08:51:11;24.15;;;9.45;;
31966;SDS011;18496;52.042;6.812;2023-07-30T08:53:15;39.42;;;8.95;;
31966;SDS011;18496;52.042;6.812;2023-07-30T08:55:20;26.00;;;8.43;;
31966;SDS011;18496;52.042;6.812;2023-07-30T08:57:25;19.73;;;8.00;;
31966;SDS011;18496;52.042;6.812;2023-07-30T08:59:38;23.48;;;8.57;;
31966;SDS011;18496;52.042;6.812;2023-07-30T09:01:45;22.00;;;7.32;;
31966;SDS011;18496;52.042;6.812;2023-07-30T09:03:53;22.60;;;7.22;;
31966;SDS011;18496;52.042;6.812;2023-07-30T09:05:57;20.38;;;6.65;;
31966;SDS011;18496;52.042;6.812;2023-07-30T09:08:01;28.58;;;7.68;;
31966;SDS011;18496;52.042;6.812;2023-07-30T09:10:05;23.42;;;7.65;;
31966;SDS011;18496;52.042;6.812;2023-07-30T09:12:12;22.17;;;7.28;;
31966;SDS011;18496;52.042;6.812;2023-07-30T09:14:19;21.45;;;6.40;;
31966;SDS011;18496;52.042;6.812;2023-07-30T09:16:24;22.65;;;6.38;;
31966;SDS011;18496;52.042;6.812;2023-07-30T09:18:38;19.20;;;5.85;;
31966;SDS011;18496;52.042;6.812;2023-07-30T09:20:42;15.95;;;5.97;;
31966;SDS011;18496;52.042;6.812;2023-07-30T09:22:46;25.55;;;6.35;;
31966;SDS011;18496;52.042;6.812;2023-07-30T09:24:51;18.42;;;5.47;;
31966;SDS011;18496;52.042;6.812;2023-07-30T09:26:57;20.30;;;5.70;;
31966;SDS011;18496;52.042;6.812;2023-07-30T09:29:07;20.42;;;6.35;;
31966;SDS011;18496;52.042;6.812;2023-07-30T09:31:12;10.35;;;4.93;;
31966;SDS011;18496;52.042;6.812;2023-07-30T09:33:18;17.08;;;5.22;;
31966;SDS011;18496;52.042;6.812;2023-07-30T09:35:23;28.50;;;5.63;;
31966;SDS011;18496;52.042;6.812;2023-07-30T09:37:28;19.70;;;4.70;;
31966;SDS011;18496;52.042;6.812;2023-07-30T09:39:31;19.75;;;5.22;;
31966;SDS011;18496;52.042;6.812;2023-07-30T09:41:35;17.63;;;5.43;;
31966;SDS011;18496;52.042;6.812;2023-07-30T09:43:39;17.20;;;5.22;;
31966;SDS011;18496;52.042;6.812;2023-07-30T09:45:44;19.05;;;5.07;;
31966;SDS011;18496;52.042;6.812;2023-07-30T09:47:52;15.75;;;4.05;;
31966;SDS011;18496;52.042;6.812;2023-07-30T09:49:57;16.38;;;5.22;;
31966;SDS011;18496;52.042;6.812;2023-07-30T09:52:01;20.30;;;5.22;;
31966;SDS011;18496;52.042;6.812;2023-07-30T09:54:06;23.30;;;4.65;;
31966;SDS011;18496;52.042;6.812;2023-07-30T09:56:14;23.02;;;4.57;;
31966;SDS011;18496;52.042;6.812;2023-07-30T09:58:17;16.88;;;4.20;;
31966;SDS011;18496;52.042;6.812;2023-07-30T10:00:22;15.80;;;4.28;;
31966;SDS011;18496;52.042;6.812;2023-07-30T10:02:26;15.63;;;4.35;;
31966;SDS011;18496;52.042;6.812;2023-07-30T10:04:34;17.17;;;4.38;;
31966;SDS011;18496;52.042;6.812;2023-07-30T10:07:04;17.95;;;4.47;;
31966;SDS011;18496;52.042;6.812;2023-07-30T10:09:10;15.68;;;4.10;;
31966;SDS011;18496;52.042;6.812;2023-07-30T10:11:16;24.90;;;4.38;;
31966;SDS011;18496;52.042;6.812;2023-07-30T10:13:22;23.13;;;4.78;;
31966;SDS011;18496;52.042;6.812;2023-07-30T10:15:26;14.05;;;3.47;;
31966;SDS011;18496;52.042;6.812;2023-07-30T10:17:31;16.55;;;4.35;;
31966;SDS011;18496;52.042;6.812;2023-07-30T10:19:36;11.50;;;3.10;;
31966;SDS011;18496;52.042;6.812;2023-07-30T10:21:40;18.40;;;4.65;;
31966;SDS011;18496;52.042;6.812;2023-07-30T10:24:04;17.42;;;3.60;;
31966;SDS011;18496;52.042;6.812;2023-07-30T10:26:08;14.80;;;3.42;;
31966;SDS011;18496;52.042;6.812;2023-07-30T10:30:54;15.88;;;3.70;;
31966;SDS011;18496;52.042;6.812;2023-07-30T10:35:07;14.65;;;3.85;;
31966;SDS011;18496;52.042;6.812;2023-07-30T10:37:17;14.65;;;3.55;;
31966;SDS011;18496;52.042;6.812;2023-07-30T10:39:25;21.08;;;4.30;;
31966;SDS011;18496;52.042;6.812;2023-07-30T10:41:30;9.13;;;2.80;;
31966;SDS011;18496;52.042;6.812;2023-07-30T10:43:35;11.38;;;3.28;;
31966;SDS011;18496;52.042;6.812;2023-07-30T10:45:50;13.32;;;3.97;;
31966;SDS011;18496;52.042;6.812;2023-07-30T10:48:03;18.47;;;3.83;;
31966;SDS011;18496;52.042;6.812;2023-07-30T10:50:07;18.45;;;4.05;;
31966;SDS011;18496;52.042;6.812;2023-07-30T10:52:14;9.75;;;3.28;;
31966;SDS011;18496;52.042;6.812;2023-07-30T10:54:19;11.10;;;3.50;;
31966;SDS011;18496;52.042;6.812;2023-07-30T10:56:23;12.25;;;3.25;;
31966;SDS011;18496;52.042;6.812;2023-07-30T10:58:28;13.93;;;3.17;;
31966;SDS011;18496;52.042;6.812;2023-07-30T11:00:33;17.77;;;4.00;;
31966;SDS011;18496;52.042;6.812;2023-07-30T11:02:37;10.82;;;3.30;;
31966;SDS011;18496;52.042;6.812;2023-07-30T11:04:40;12.57;;;3.63;;
31966;SDS011;18496;52.042;6.812;2023-07-30T11:06:48;13.70;;;3.72;;
31966;SDS011;18496;52.042;6.812;2023-07-30T11:08:53;14.02;;;3.25;;
31966;SDS011;18496;52.042;6.812;2023-07-30T11:10:57;11.73;;;3.33;;
31966;SDS011;18496;52.042;6.812;2023-07-30T11:13:00;12.05;;;3.20;;
31966;SDS011;18496;52.042;6.812;2023-07-30T11:15:04;8.65;;;2.78;;
31966;SDS011;18496;52.042;6.812;2023-07-30T11:17:09;13.27;;;3.28;;
31966;SDS011;18496;52.042;6.812;2023-07-30T11:19:12;8.43;;;3.38;;
31966;SDS011;18496;52.042;6.812;2023-07-30T11:21:17;12.82;;;3.80;;
31966;SDS011;18496;52.042;6.812;2023-07-30T11:23:22;18.95;;;4.65;;
31966;SDS011;18496;52.042;6.812;2023-07-30T11:25:26;9.85;;;2.97;;
31966;SDS011;18496;52.042;6.812;2023-07-30T11:27:30;10.32;;;3.92;;
31966;SDS011;18496;52.042;6.812;2023-07-30T11:29:53;13.93;;;3.30;;
31966;SDS011;18496;52.042;6.812;2023-07-30T11:31:58;9.95;;;3.35;;
31966;SDS011;18496;52.042;6.812;2023-07-30T11:34:03;16.50;;;3.30;;
31966;SDS011;18496;52.042;6.812;2023-07-30T11:36:14;8.77;;;3.55;;
31966;SDS011;18496;52.042;6.812;2023-07-30T11:38:22;8.57;;;2.65;;
31966;SDS011;18496;52.042;6.812;2023-07-30T11:40:29;15.00;;;3.38;;
31966;SDS011;18496;52.042;6.812;2023-07-30T11:42:34;9.63;;;2.70;;
31966;SDS011;18496;52.042;6.812;2023-07-30T11:44:39;13.90;;;3.63;;
31966;SDS011;18496;52.042;6.812;2023-07-30T11:46:52;10.00;;;3.13;;
31966;SDS011;18496;52.042;6.812;2023-07-30T11:49:10;11.85;;;3.33;;
31966;SDS011;18496;52.042;6.812;2023-07-30T11:51:23;12.63;;;3.20;;
31966;SDS011;18496;52.042;6.812;2023-07-30T11:53:47;15.98;;;3.40;;
31966;SDS011;18496;52.042;6.812;2023-07-30T11:55:55;14.43;;;3.05;;
31966;SDS011;18496;52.042;6.812;2023-07-30T11:57:59;8.68;;;2.20;;
31966;SDS011;18496;52.042;6.812;2023-07-30T12:00:02;4.93;;;2.22;;
31966;SDS011;18496;52.042;6.812;2023-07-30T12:02:18;11.32;;;2.28;;
31966;SDS011;18496;52.042;6.812;2023-07-30T12:04:22;14.23;;;2.25;;
31966;SDS011;18496;52.042;6.812;2023-07-30T12:06:40;6.05;;;2.17;;
31966;SDS011;18496;52.042;6.812;2023-07-30T12:08:45;7.75;;;1.90;;
31966;SDS011;18496;52.042;6.812;2023-07-30T12:10:52;7.43;;;2.00;;
31966;SDS011;18496;52.042;6.812;2023-07-30T12:12:56;7.82;;;2.65;;
31966;SDS011;18496;52.042;6.812;2023-07-30T12:14:59;8.52;;;1.92;;
31966;SDS011;18496;52.042;6.812;2023-07-30T12:17:03;8.55;;;2.20;;
31966;SDS011;18496;52.042;6.812;2023-07-30T12:19:07;7.78;;;1.70;;
31966;SDS011;18496;52.042;6.812;2023-07-30T12:21:11;9.60;;;2.08;;
31966;SDS011;18496;52.042;6.812;2023-07-30T12:23:15;8.50;;;1.98;;
31966;SDS011;18496;52.042;6.812;2023-07-30T12:25:19;8.23;;;2.28;;
31966;SDS011;18496;52.042;6.812;2023-07-30T12:27:22;12.35;;;2.00;;